RYR47QP LIRP-EICK
Flight info
| Callsign | RYR47QP |
|---|---|
| Flight time | 2h 29m |
| Altitude | 38000 |
| Route | BEROK DCT CANNE DCT BEGAR DCT SUTAL N852 DIK M624 BUB L608 DENUT L610 KOPUL Q60 OKSAW DCT PENWU DCT GOTEM GOTEM1R |
| Aircraft | B738/M-SDE3FGILRWY/SB1 |
Departure
| Time | 2026-05-07 15:38 |
|---|---|
| Airport | Pisa International Airport (LIRP) |
Arrival
| Time | 2026-05-07 18:08 |
|---|---|
| Airport | Cork International Airport (EICK) |
| Time | Latitude | Longitude | Altitude | Speed | Heading |
|---|---|---|---|---|---|
| 2026-05-07 15:11 | 43.69765 | 10.40153 | 14 ft | 0 kts | 9° |
| 2026-05-07 15:29 | 43.69746 | 10.40150 | 14 ft | 3 kts | 353° |
| 2026-05-07 15:29 | 43.69727 | 10.40158 | 16 ft | 3 kts | 303° |
| 2026-05-07 15:29 | 43.69724 | 10.40177 | 15 ft | 1 kts | 244° |
| 2026-05-07 15:32 | 43.69722 | 10.40172 | 15 ft | 3 kts | 244° |
| 2026-05-07 15:32 | 43.69701 | 10.40112 | 14 ft | 10 kts | 244° |
| 2026-05-07 15:32 | 43.69647 | 10.40058 | 14 ft | 11 kts | 177° |
| 2026-05-07 15:33 | 43.69556 | 10.40073 | 15 ft | 17 kts | 172° |
| 2026-05-07 15:33 | 43.69433 | 10.40097 | 19 ft | 18 kts | 171° |
| 2026-05-07 15:33 | 43.69317 | 10.40068 | 21 ft | 18 kts | 216° |
| 2026-05-07 15:33 | 43.69203 | 10.39949 | 22 ft | 24 kts | 217° |
| 2026-05-07 15:34 | 43.69049 | 10.39790 | 20 ft | 30 kts | 217° |
| 2026-05-07 15:34 | 43.68882 | 10.39617 | 17 ft | 29 kts | 216° |
| 2026-05-07 15:34 | 43.68723 | 10.39454 | 17 ft | 28 kts | 217° |
| 2026-05-07 15:34 | 43.68576 | 10.39302 | 17 ft | 26 kts | 217° |
| 2026-05-07 15:35 | 43.68415 | 10.39136 | 15 ft | 30 kts | 217° |
| 2026-05-07 15:35 | 43.68247 | 10.38963 | 13 ft | 30 kts | 217° |
| 2026-05-07 15:35 | 43.68086 | 10.38797 | 12 ft | 28 kts | 216° |
| 2026-05-07 15:35 | 43.67935 | 10.38641 | 14 ft | 26 kts | 216° |
| 2026-05-07 15:36 | 43.67795 | 10.38497 | 15 ft | 25 kts | 217° |
| 2026-05-07 15:36 | 43.67666 | 10.38364 | 13 ft | 16 kts | 217° |
| 2026-05-07 15:36 | 43.67598 | 10.38383 | 13 ft | 12 kts | 127° |
| 2026-05-07 15:36 | 43.67549 | 10.38472 | 15 ft | 11 kts | 127° |
| 2026-05-07 15:37 | 43.67525 | 10.38542 | 17 ft | 6 kts | 58° |
| 2026-05-07 15:37 | 43.67607 | 10.38632 | 19 ft | 40 kts | 37° |
| 2026-05-07 15:37 | 43.68018 | 10.39056 | 17 ft | 108 kts | 37° |
| 2026-05-07 15:37 | 43.68777 | 10.39833 | 31 ft | 160 kts | 33° |
| 2026-05-07 15:38 | 43.69717 | 10.40804 | 569 ft | 170 kts | 33° |
| 2026-05-07 15:38 | 43.70675 | 10.41776 | 1281 ft | 171 kts | 35° |
| 2026-05-07 15:38 | 43.71682 | 10.42711 | 1948 ft | 179 kts | 22° |
| 2026-05-07 15:38 | 43.72842 | 10.43211 | 2750 ft | 174 kts | 7° |
| 2026-05-07 15:39 | 43.74057 | 10.43278 | 3387 ft | 178 kts | 353° |
| 2026-05-07 15:39 | 43.75309 | 10.42860 | 3838 ft | 198 kts | 337° |
| 2026-05-07 15:39 | 43.76669 | 10.42122 | 4114 ft | 218 kts | 338° |
| 2026-05-07 15:39 | 43.78106 | 10.41371 | 4672 ft | 222 kts | 338° |
| 2026-05-07 15:40 | 43.79584 | 10.40599 | 5171 ft | 237 kts | 339° |
| 2026-05-07 15:40 | 43.81211 | 10.39749 | 5468 ft | 261 kts | 338° |
| 2026-05-07 15:40 | 43.82934 | 10.38850 | 6205 ft | 266 kts | 338° |
| 2026-05-07 15:40 | 43.84684 | 10.37938 | 6930 ft | 270 kts | 338° |
| 2026-05-07 15:41 | 43.86466 | 10.37006 | 7641 ft | 276 kts | 337° |
| 2026-05-07 15:41 | 43.88246 | 10.36081 | 8457 ft | 277 kts | 338° |
| 2026-05-07 15:41 | 43.90157 | 10.35528 | 9181 ft | 284 kts | 352° |
| 2026-05-07 15:41 | 43.92148 | 10.35295 | 9931 ft | 289 kts | 353° |
| 2026-05-07 15:42 | 43.94177 | 10.35021 | 10456 ft | 301 kts | 352° |
| 2026-05-07 15:42 | 43.96346 | 10.34698 | 10631 ft | 325 kts | 351° |
| 2026-05-07 15:42 | 43.98668 | 10.34351 | 10898 ft | 343 kts | 352° |
| 2026-05-07 15:42 | 44.01091 | 10.34296 | 11449 ft | 352 kts | 0° |
| 2026-05-07 15:43 | 44.03524 | 10.34454 | 12129 ft | 355 kts | 1° |
| 2026-05-07 15:43 | 44.06006 | 10.34646 | 12861 ft | 359 kts | 1° |
| 2026-05-07 15:43 | 44.08519 | 10.34803 | 13573 ft | 363 kts | 0° |
| 2026-05-07 15:43 | 44.11065 | 10.34930 | 14230 ft | 366 kts | 360° |
| 2026-05-07 15:44 | 44.13585 | 10.35041 | 14963 ft | 368 kts | 359° |
| 2026-05-07 15:44 | 44.16157 | 10.35014 | 15615 ft | 370 kts | 349° |
| 2026-05-07 15:44 | 44.18581 | 10.33881 | 16320 ft | 367 kts | 331° |
| 2026-05-07 15:44 | 44.20873 | 10.32275 | 17100 ft | 368 kts | 330° |
| 2026-05-07 15:45 | 44.23137 | 10.30642 | 17759 ft | 372 kts | 329° |
| 2026-05-07 15:45 | 44.25451 | 10.28964 | 18438 ft | 376 kts | 329° |
| 2026-05-07 15:45 | 44.27783 | 10.27277 | 19016 ft | 378 kts | 329° |
| 2026-05-07 15:45 | 44.30134 | 10.25584 | 19612 ft | 382 kts | 329° |
| 2026-05-07 15:46 | 44.34918 | 10.22159 | 20728 ft | 388 kts | 329° |
| 2026-05-07 15:46 | 44.37312 | 10.20450 | 21286 ft | 392 kts | 329° |
| 2026-05-07 15:46 | 44.39751 | 10.18710 | 21844 ft | 396 kts | 329° |
| 2026-05-07 15:47 | 44.42222 | 10.16946 | 22378 ft | 399 kts | 328° |
| 2026-05-07 15:47 | 44.44709 | 10.15171 | 22926 ft | 402 kts | 328° |
| 2026-05-07 15:47 | 44.47206 | 10.13388 | 23471 ft | 404 kts | 328° |
| 2026-05-07 15:47 | 44.49692 | 10.11609 | 23900 ft | 407 kts | 328° |
| 2026-05-07 15:48 | 44.52236 | 10.09788 | 24305 ft | 410 kts | 328° |
| 2026-05-07 15:48 | 44.54791 | 10.07959 | 24732 ft | 412 kts | 328° |
| 2026-05-07 15:48 | 44.57348 | 10.06126 | 25188 ft | 413 kts | 327° |
| 2026-05-07 15:48 | 44.59919 | 10.04278 | 25617 ft | 415 kts | 327° |
| 2026-05-07 15:49 | 44.62468 | 10.02446 | 26018 ft | 418 kts | 327° |
| 2026-05-07 15:49 | 44.65073 | 10.00573 | 26409 ft | 420 kts | 327° |
| 2026-05-07 15:49 | 44.67686 | 9.98692 | 26816 ft | 422 kts | 327° |
| 2026-05-07 15:49 | 44.70309 | 9.96802 | 27204 ft | 423 kts | 327° |
| 2026-05-07 15:50 | 44.72906 | 9.94929 | 27550 ft | 425 kts | 327° |
| 2026-05-07 15:50 | 44.75558 | 9.93013 | 27859 ft | 429 kts | 326° |
| 2026-05-07 15:50 | 44.78225 | 9.91085 | 28248 ft | 431 kts | 326° |
| 2026-05-07 15:50 | 44.80898 | 9.89152 | 28579 ft | 433 kts | 326° |
| 2026-05-07 15:51 | 44.83591 | 9.87199 | 28883 ft | 436 kts | 326° |
| 2026-05-07 15:51 | 44.86266 | 9.85257 | 29209 ft | 438 kts | 326° |
| 2026-05-07 15:51 | 44.88993 | 9.83276 | 29553 ft | 440 kts | 326° |
| 2026-05-07 15:51 | 44.91728 | 9.81289 | 29891 ft | 442 kts | 326° |
| 2026-05-07 15:52 | 44.94473 | 9.79292 | 30176 ft | 444 kts | 326° |
| 2026-05-07 15:52 | 44.97200 | 9.77306 | 30508 ft | 444 kts | 326° |
| 2026-05-07 15:52 | 44.99935 | 9.75315 | 31009 ft | 440 kts | 326° |
| 2026-05-07 15:52 | 45.02647 | 9.73340 | 31449 ft | 438 kts | 326° |
| 2026-05-07 15:53 | 45.05360 | 9.71358 | 31754 ft | 438 kts | 326° |
| 2026-05-07 15:53 | 45.08072 | 9.69373 | 32045 ft | 439 kts | 326° |
| 2026-05-07 15:53 | 45.10785 | 9.67385 | 32409 ft | 438 kts | 326° |
| 2026-05-07 15:53 | 45.13492 | 9.65401 | 32811 ft | 436 kts | 326° |
| 2026-05-07 15:54 | 45.16157 | 9.63446 | 33176 ft | 436 kts | 326° |
| 2026-05-07 15:54 | 45.18852 | 9.61464 | 33508 ft | 436 kts | 326° |
| 2026-05-07 15:54 | 45.21545 | 9.59485 | 33889 ft | 434 kts | 326° |
| 2026-05-07 15:54 | 45.24226 | 9.57511 | 34193 ft | 434 kts | 326° |
| 2026-05-07 15:55 | 45.26911 | 9.55530 | 34397 ft | 435 kts | 326° |
| 2026-05-07 15:55 | 45.29613 | 9.53534 | 34596 ft | 437 kts | 326° |
| 2026-05-07 15:55 | 45.32284 | 9.51561 | 34846 ft | 437 kts | 326° |
| 2026-05-07 15:55 | 45.34982 | 9.49566 | 35105 ft | 437 kts | 326° |
| 2026-05-07 15:56 | 45.37682 | 9.47567 | 35331 ft | 438 kts | 326° |
| 2026-05-07 15:56 | 45.40385 | 9.45563 | 35593 ft | 438 kts | 326° |
| 2026-05-07 15:56 | 45.43090 | 9.43557 | 35856 ft | 437 kts | 326° |
| 2026-05-07 15:56 | 45.45793 | 9.41550 | 36057 ft | 439 kts | 326° |
| 2026-05-07 15:57 | 45.48510 | 9.39529 | 36240 ft | 440 kts | 326° |
| 2026-05-07 15:57 | 45.51196 | 9.37530 | 36455 ft | 440 kts | 326° |
| 2026-05-07 15:57 | 45.53919 | 9.35501 | 36613 ft | 440 kts | 326° |
| 2026-05-07 15:57 | 45.56636 | 9.33474 | 36809 ft | 441 kts | 326° |
| 2026-05-07 15:58 | 45.59361 | 9.31439 | 37015 ft | 442 kts | 327° |
| 2026-05-07 15:58 | 45.62089 | 9.29399 | 37260 ft | 441 kts | 327° |
| 2026-05-07 15:58 | 45.64810 | 9.27364 | 37473 ft | 441 kts | 327° |
| 2026-05-07 15:58 | 45.67534 | 9.25323 | 37623 ft | 442 kts | 327° |
| 2026-05-07 15:59 | 45.70237 | 9.23294 | 37797 ft | 443 kts | 327° |
| 2026-05-07 15:59 | 45.72965 | 9.21246 | 37956 ft | 444 kts | 327° |
| 2026-05-07 15:59 | 45.75720 | 9.19173 | 37942 ft | 447 kts | 327° |
| 2026-05-07 16:00 | 45.81224 | 9.15030 | 37966 ft | 445 kts | 327° |
| 2026-05-07 16:00 | 45.86658 | 9.10932 | 37955 ft | 442 kts | 327° |
| 2026-05-07 16:01 | 45.92098 | 9.06817 | 37974 ft | 439 kts | 327° |
| 2026-05-07 16:01 | 45.97469 | 9.02745 | 37972 ft | 437 kts | 327° |
| 2026-05-07 16:02 | 46.02855 | 8.98651 | 37989 ft | 437 kts | 327° |
| 2026-05-07 16:02 | 46.08203 | 8.94577 | 37982 ft | 437 kts | 327° |
| 2026-05-07 16:03 | 46.13607 | 8.90453 | 37966 ft | 438 kts | 327° |
| 2026-05-07 16:03 | 46.18996 | 8.86374 | 37968 ft | 441 kts | 328° |
| 2026-05-07 16:04 | 46.23573 | 8.83074 | 37975 ft | 442 kts | 329° |
| 2026-05-07 16:04 | 46.29111 | 8.79126 | 37985 ft | 445 kts | 329° |
| 2026-05-07 16:05 | 46.34674 | 8.75124 | 37961 ft | 446 kts | 329° |
| 2026-05-07 16:05 | 46.40241 | 8.71098 | 37976 ft | 447 kts | 329° |
| 2026-05-07 16:06 | 46.45780 | 8.67076 | 37985 ft | 448 kts | 329° |
| 2026-05-07 16:06 | 46.51365 | 8.63011 | 37980 ft | 447 kts | 329° |
| 2026-05-07 16:07 | 46.56893 | 8.58982 | 37994 ft | 446 kts | 328° |
| 2026-05-07 16:07 | 46.62449 | 8.54920 | 37995 ft | 446 kts | 328° |
| 2026-05-07 16:08 | 46.67954 | 8.50886 | 38006 ft | 444 kts | 329° |
| 2026-05-07 16:08 | 46.73489 | 8.46819 | 38015 ft | 446 kts | 328° |
| 2026-05-07 16:09 | 46.79000 | 8.42756 | 38034 ft | 439 kts | 329° |
| 2026-05-07 16:09 | 46.84436 | 8.38754 | 38035 ft | 440 kts | 328° |
| 2026-05-07 16:10 | 46.89927 | 8.34689 | 38039 ft | 441 kts | 328° |
| 2026-05-07 16:10 | 46.95433 | 8.30606 | 38029 ft | 443 kts | 328° |
| 2026-05-07 16:11 | 47.00909 | 8.26538 | 38021 ft | 445 kts | 328° |
| 2026-05-07 16:11 | 47.06444 | 8.22415 | 38037 ft | 446 kts | 329° |
| 2026-05-07 16:12 | 47.11996 | 8.18269 | 38024 ft | 447 kts | 329° |
| 2026-05-07 16:12 | 47.17536 | 8.14124 | 38026 ft | 448 kts | 329° |
| 2026-05-07 16:13 | 47.23110 | 8.09943 | 38014 ft | 449 kts | 329° |
| 2026-05-07 16:13 | 47.28686 | 8.05752 | 38010 ft | 450 kts | 329° |
| 2026-05-07 16:14 | 47.34266 | 8.01547 | 38009 ft | 449 kts | 329° |
| 2026-05-07 16:14 | 47.39797 | 7.97369 | 38004 ft | 447 kts | 329° |
| 2026-05-07 16:15 | 47.45344 | 7.93169 | 38012 ft | 446 kts | 329° |
| 2026-05-07 16:15 | 47.50833 | 7.89002 | 38004 ft | 444 kts | 329° |
| 2026-05-07 16:16 | 47.56327 | 7.84822 | 38026 ft | 442 kts | 329° |
| 2026-05-07 16:16 | 47.61792 | 7.80654 | 38013 ft | 441 kts | 329° |
| 2026-05-07 16:17 | 47.67218 | 7.76505 | 38023 ft | 441 kts | 329° |
| 2026-05-07 16:17 | 47.72683 | 7.72317 | 38023 ft | 441 kts | 329° |
| 2026-05-07 16:18 | 47.78119 | 7.68140 | 38025 ft | 442 kts | 329° |
| 2026-05-07 16:18 | 47.83605 | 7.63916 | 38021 ft | 444 kts | 329° |
| 2026-05-07 16:19 | 47.89101 | 7.59675 | 38030 ft | 445 kts | 329° |
| 2026-05-07 16:19 | 47.94644 | 7.55459 | 38021 ft | 447 kts | 330° |
| 2026-05-07 16:20 | 48.00197 | 7.51365 | 38034 ft | 448 kts | 330° |
| 2026-05-07 16:20 | 48.05801 | 7.47234 | 38058 ft | 449 kts | 330° |
| 2026-05-07 16:21 | 48.11413 | 7.43069 | 38049 ft | 450 kts | 330° |
| 2026-05-07 16:21 | 48.16998 | 7.38904 | 38045 ft | 450 kts | 330° |
| 2026-05-07 16:22 | 48.22615 | 7.34702 | 38059 ft | 451 kts | 330° |
| 2026-05-07 16:22 | 48.28240 | 7.30483 | 38050 ft | 451 kts | 330° |
| 2026-05-07 16:23 | 48.33861 | 7.26257 | 38036 ft | 451 kts | 330° |
| 2026-05-07 16:23 | 48.39447 | 7.22049 | 38049 ft | 451 kts | 330° |
| 2026-05-07 16:24 | 48.45030 | 7.17831 | 38049 ft | 451 kts | 330° |
| 2026-05-07 16:24 | 48.50635 | 7.13587 | 38043 ft | 450 kts | 330° |
| 2026-05-07 16:25 | 48.56239 | 7.09332 | 38040 ft | 449 kts | 330° |
| 2026-05-07 16:25 | 48.61833 | 7.05074 | 38038 ft | 449 kts | 330° |
| 2026-05-07 16:26 | 48.67383 | 7.00840 | 38046 ft | 448 kts | 330° |
| 2026-05-07 16:26 | 48.72960 | 6.96574 | 38038 ft | 448 kts | 330° |
| 2026-05-07 16:27 | 48.78505 | 6.92322 | 38046 ft | 448 kts | 330° |
| 2026-05-07 16:27 | 48.84077 | 6.88038 | 38044 ft | 448 kts | 330° |
| 2026-05-07 16:28 | 48.89635 | 6.83755 | 38053 ft | 448 kts | 330° |
| 2026-05-07 16:28 | 48.95157 | 6.79488 | 38045 ft | 448 kts | 330° |
| 2026-05-07 16:29 | 49.00743 | 6.75162 | 38042 ft | 448 kts | 330° |
| 2026-05-07 16:29 | 49.06270 | 6.70870 | 38044 ft | 448 kts | 330° |
| 2026-05-07 16:30 | 49.11832 | 6.66540 | 38057 ft | 449 kts | 330° |
| 2026-05-07 16:30 | 49.17411 | 6.62186 | 38046 ft | 449 kts | 330° |
| 2026-05-07 16:31 | 49.22956 | 6.57847 | 38047 ft | 449 kts | 330° |
| 2026-05-07 16:31 | 49.28534 | 6.53472 | 38046 ft | 450 kts | 330° |
| 2026-05-07 16:32 | 49.34079 | 6.49111 | 38042 ft | 450 kts | 330° |
| 2026-05-07 16:32 | 49.39669 | 6.44703 | 38041 ft | 451 kts | 330° |
| 2026-05-07 16:33 | 49.45247 | 6.40294 | 38045 ft | 451 kts | 330° |
| 2026-05-07 16:33 | 49.50930 | 6.36263 | 38048 ft | 452 kts | 335° |
| 2026-05-07 16:34 | 49.56769 | 6.32633 | 38049 ft | 452 kts | 335° |
| 2026-05-07 16:34 | 49.62591 | 6.28913 | 38060 ft | 452 kts | 335° |
| 2026-05-07 16:35 | 49.68347 | 6.25086 | 38046 ft | 452 kts | 334° |
| 2026-05-07 16:35 | 49.74107 | 6.21156 | 38050 ft | 452 kts | 334° |
| 2026-05-07 16:36 | 49.79870 | 6.17236 | 38054 ft | 452 kts | 334° |
| 2026-05-07 16:36 | 49.85549 | 6.13097 | 38039 ft | 449 kts | 326° |
| 2026-05-07 16:37 | 49.90301 | 6.07013 | 38059 ft | 444 kts | 313° |
| 2026-05-07 16:37 | 49.94698 | 6.00254 | 38048 ft | 445 kts | 313° |
| 2026-05-07 16:38 | 49.99144 | 5.93617 | 38051 ft | 445 kts | 314° |
| 2026-05-07 16:38 | 50.03617 | 5.86939 | 38053 ft | 445 kts | 314° |
| 2026-05-07 16:39 | 50.08094 | 5.80225 | 38048 ft | 446 kts | 314° |
| 2026-05-07 16:39 | 50.12540 | 5.73544 | 38058 ft | 446 kts | 314° |
| 2026-05-07 16:40 | 50.17017 | 5.66800 | 38059 ft | 446 kts | 314° |
| 2026-05-07 16:40 | 50.21466 | 5.60077 | 38060 ft | 447 kts | 313° |
| 2026-05-07 16:41 | 50.25941 | 5.53298 | 38061 ft | 447 kts | 313° |
| 2026-05-07 16:41 | 50.30376 | 5.46560 | 38068 ft | 448 kts | 313° |
| 2026-05-07 16:42 | 50.34849 | 5.39745 | 38064 ft | 448 kts | 313° |
| 2026-05-07 16:42 | 50.39323 | 5.32910 | 38063 ft | 448 kts | 313° |
| 2026-05-07 16:43 | 50.43766 | 5.26103 | 38067 ft | 448 kts | 313° |
| 2026-05-07 16:43 | 50.48226 | 5.19251 | 38065 ft | 448 kts | 313° |
| 2026-05-07 16:44 | 50.52684 | 5.12382 | 38069 ft | 448 kts | 313° |
| 2026-05-07 16:44 | 50.57113 | 5.05540 | 38072 ft | 448 kts | 313° |
| 2026-05-07 16:45 | 50.61560 | 4.98650 | 38072 ft | 448 kts | 313° |
| 2026-05-07 16:45 | 50.66007 | 4.91743 | 38074 ft | 448 kts | 313° |
| 2026-05-07 16:46 | 50.70415 | 4.84883 | 38077 ft | 448 kts | 313° |
| 2026-05-07 16:46 | 50.74850 | 4.77967 | 38073 ft | 448 kts | 313° |
| 2026-05-07 16:47 | 50.79281 | 4.71035 | 38075 ft | 448 kts | 313° |
| 2026-05-07 16:47 | 50.83713 | 4.64079 | 38081 ft | 448 kts | 313° |
| 2026-05-07 16:48 | 50.88116 | 4.57152 | 38078 ft | 448 kts | 313° |
| 2026-05-07 16:48 | 50.92025 | 4.49543 | 38084 ft | 443 kts | 300° |
| 2026-05-07 16:49 | 50.95199 | 4.41142 | 38081 ft | 443 kts | 298° |
| 2026-05-07 16:49 | 50.98336 | 4.32766 | 38073 ft | 444 kts | 299° |
| 2026-05-07 16:50 | 51.01529 | 4.24345 | 38074 ft | 444 kts | 299° |
| 2026-05-07 16:50 | 51.04708 | 4.15992 | 38072 ft | 444 kts | 299° |
| 2026-05-07 16:51 | 51.07910 | 4.07558 | 38072 ft | 444 kts | 299° |
| 2026-05-07 16:51 | 51.11083 | 3.99167 | 38072 ft | 444 kts | 299° |
| 2026-05-07 16:52 | 51.13737 | 3.92129 | 38071 ft | 445 kts | 299° |
| 2026-05-07 16:52 | 51.16918 | 3.83663 | 38068 ft | 445 kts | 298° |
| 2026-05-07 16:53 | 51.20098 | 3.75176 | 38073 ft | 445 kts | 298° |
| 2026-05-07 16:53 | 51.23139 | 3.66661 | 38057 ft | 443 kts | 291° |
| 2026-05-07 16:54 | 51.24841 | 3.57266 | 38083 ft | 439 kts | 279° |
| 2026-05-07 16:54 | 51.26022 | 3.47678 | 38069 ft | 439 kts | 280° |
| 2026-05-07 16:55 | 51.27266 | 3.38185 | 38070 ft | 439 kts | 280° |
| 2026-05-07 16:55 | 51.28503 | 3.28623 | 38079 ft | 439 kts | 280° |
| 2026-05-07 16:56 | 51.29727 | 3.19034 | 38072 ft | 439 kts | 280° |
| 2026-05-07 16:56 | 51.31548 | 3.04671 | 38075 ft | 440 kts | 279° |
| 2026-05-07 16:57 | 51.32748 | 2.95131 | 38077 ft | 440 kts | 279° |
| 2026-05-07 16:57 | 51.33950 | 2.85515 | 38081 ft | 440 kts | 279° |
| 2026-05-07 16:58 | 51.35137 | 2.75953 | 38073 ft | 440 kts | 279° |
| 2026-05-07 16:58 | 51.36325 | 2.66333 | 38068 ft | 440 kts | 279° |
| 2026-05-07 16:59 | 51.37508 | 2.56700 | 38068 ft | 440 kts | 279° |
| 2026-05-07 16:59 | 51.38675 | 2.47138 | 38067 ft | 440 kts | 279° |
| 2026-05-07 17:00 | 51.39842 | 2.37510 | 38078 ft | 440 kts | 279° |
| 2026-05-07 17:00 | 51.40996 | 2.27917 | 38069 ft | 440 kts | 279° |
| 2026-05-07 17:01 | 51.42164 | 2.18285 | 38071 ft | 440 kts | 279° |
| 2026-05-07 17:01 | 51.43344 | 2.08648 | 38068 ft | 440 kts | 279° |
| 2026-05-07 17:02 | 51.44501 | 1.99079 | 38068 ft | 440 kts | 279° |
| 2026-05-07 17:02 | 51.45639 | 1.89435 | 38074 ft | 439 kts | 279° |
| 2026-05-07 17:03 | 51.46761 | 1.79789 | 38054 ft | 439 kts | 279° |
| 2026-05-07 17:03 | 51.47875 | 1.70126 | 38072 ft | 439 kts | 278° |
| 2026-05-07 17:04 | 51.48979 | 1.60486 | 38058 ft | 439 kts | 278° |
| 2026-05-07 17:04 | 51.50070 | 1.50883 | 38074 ft | 439 kts | 278° |
| 2026-05-07 17:05 | 51.51158 | 1.41229 | 38079 ft | 439 kts | 278° |
| 2026-05-07 17:05 | 51.52229 | 1.31658 | 38074 ft | 439 kts | 278° |
| 2026-05-07 17:06 | 51.53309 | 1.21948 | 38080 ft | 439 kts | 278° |
| 2026-05-07 17:06 | 51.54343 | 1.12331 | 38074 ft | 438 kts | 276° |
| 2026-05-07 17:07 | 51.55028 | 1.02603 | 38072 ft | 438 kts | 274° |
| 2026-05-07 17:07 | 51.55590 | 0.92852 | 38084 ft | 438 kts | 274° |
| 2026-05-07 17:08 | 51.56159 | 0.83282 | 38076 ft | 438 kts | 274° |
| 2026-05-07 17:08 | 51.56756 | 0.73525 | 38077 ft | 438 kts | 274° |
| 2026-05-07 17:09 | 51.57350 | 0.63819 | 38082 ft | 438 kts | 274° |
| 2026-05-07 17:09 | 51.57937 | 0.54118 | 38079 ft | 438 kts | 274° |
| 2026-05-07 17:10 | 51.58494 | 0.44758 | 38078 ft | 438 kts | 274° |
| 2026-05-07 17:10 | 51.59067 | 0.34986 | 38051 ft | 438 kts | 274° |
| 2026-05-07 17:11 | 51.59623 | 0.25367 | 38054 ft | 438 kts | 274° |
| 2026-05-07 17:11 | 51.60110 | 0.16830 | 38043 ft | 438 kts | 274° |
| 2026-05-07 17:12 | 51.60661 | 0.07038 | 38043 ft | 438 kts | 274° |
| 2026-05-07 17:12 | 51.61199 | -0.02658 | 38078 ft | 438 kts | 273° |
| 2026-05-07 17:13 | 51.61731 | -0.12386 | 38072 ft | 438 kts | 274° |
| 2026-05-07 17:13 | 51.62316 | -0.22152 | 38076 ft | 438 kts | 274° |
| 2026-05-07 17:14 | 51.62921 | -0.31856 | 38076 ft | 437 kts | 274° |
| 2026-05-07 17:14 | 51.63518 | -0.41622 | 38050 ft | 437 kts | 274° |
| 2026-05-07 17:15 | 51.64097 | -0.51323 | 38044 ft | 437 kts | 274° |
| 2026-05-07 17:15 | 51.64670 | -0.61093 | 38043 ft | 437 kts | 274° |
| 2026-05-07 17:16 | 51.65233 | -0.70858 | 38043 ft | 437 kts | 274° |
| 2026-05-07 17:16 | 51.65787 | -0.80585 | 38038 ft | 437 kts | 274° |
| 2026-05-07 17:17 | 51.66331 | -0.90282 | 38024 ft | 437 kts | 273° |
| 2026-05-07 17:17 | 51.66870 | -1.00048 | 38031 ft | 436 kts | 273° |
| 2026-05-07 17:18 | 51.67386 | -1.09528 | 38020 ft | 437 kts | 273° |
| 2026-05-07 17:18 | 51.67909 | -1.19290 | 38022 ft | 436 kts | 273° |
| 2026-05-07 17:19 | 51.68407 | -1.28736 | 38020 ft | 436 kts | 273° |
| 2026-05-07 17:19 | 51.68914 | -1.38496 | 38022 ft | 436 kts | 273° |
| 2026-05-07 17:20 | 51.69359 | -1.47196 | 38029 ft | 436 kts | 273° |
| 2026-05-07 17:20 | 51.69846 | -1.56852 | 38021 ft | 437 kts | 273° |
| 2026-05-07 17:21 | 51.70295 | -1.65900 | 38023 ft | 436 kts | 272° |
| 2026-05-07 17:21 | 51.70722 | -1.75677 | 38027 ft | 436 kts | 271° |
| 2026-05-07 17:22 | 51.71050 | -1.85228 | 38031 ft | 436 kts | 271° |
| 2026-05-07 17:22 | 51.71328 | -1.93632 | 38032 ft | 437 kts | 271° |
| 2026-05-07 17:23 | 51.71651 | -2.03297 | 38027 ft | 437 kts | 271° |
| 2026-05-07 17:23 | 51.71959 | -2.12561 | 38023 ft | 437 kts | 271° |
| 2026-05-07 17:24 | 51.72277 | -2.22309 | 38023 ft | 437 kts | 271° |
| 2026-05-07 17:24 | 51.72588 | -2.32047 | 38022 ft | 436 kts | 271° |
| 2026-05-07 17:25 | 51.72810 | -2.39206 | 38023 ft | 436 kts | 271° |
| 2026-05-07 17:25 | 51.73108 | -2.49029 | 38020 ft | 436 kts | 271° |
| 2026-05-07 17:26 | 51.73372 | -2.57949 | 38013 ft | 436 kts | 271° |
| 2026-05-07 17:26 | 51.73637 | -2.67164 | 38011 ft | 436 kts | 271° |
| 2026-05-07 17:27 | 51.73912 | -2.76966 | 38008 ft | 436 kts | 271° |
| 2026-05-07 17:27 | 51.74176 | -2.86691 | 38048 ft | 436 kts | 271° |
| 2026-05-07 17:28 | 51.74433 | -2.96487 | 38058 ft | 436 kts | 270° |
| 2026-05-07 17:28 | 51.74658 | -3.05287 | 38050 ft | 436 kts | 270° |
| 2026-05-07 17:29 | 51.74900 | -3.15086 | 38042 ft | 436 kts | 270° |
| 2026-05-07 17:29 | 51.75135 | -3.24885 | 38035 ft | 436 kts | 270° |
| 2026-05-07 17:30 | 51.75357 | -3.34513 | 38023 ft | 436 kts | 270° |
| 2026-05-07 17:30 | 51.75575 | -3.44320 | 38023 ft | 436 kts | 270° |
| 2026-05-07 17:31 | 51.75784 | -3.54078 | 38016 ft | 437 kts | 270° |
| 2026-05-07 17:31 | 51.75986 | -3.63892 | 38011 ft | 437 kts | 270° |
| 2026-05-07 17:32 | 51.76179 | -3.73695 | 38007 ft | 436 kts | 270° |
| 2026-05-07 17:32 | 51.76334 | -3.81850 | 38012 ft | 436 kts | 270° |
| 2026-05-07 17:33 | 51.76541 | -3.93233 | 38010 ft | 436 kts | 270° |
| 2026-05-07 17:33 | 51.76710 | -4.03034 | 38009 ft | 436 kts | 270° |
| 2026-05-07 17:34 | 51.76871 | -4.12843 | 38005 ft | 436 kts | 269° |
| 2026-05-07 17:34 | 51.77024 | -4.22635 | 38007 ft | 436 kts | 269° |
| 2026-05-07 17:35 | 51.77168 | -4.32380 | 38009 ft | 436 kts | 269° |
| 2026-05-07 17:35 | 51.77305 | -4.42196 | 38012 ft | 436 kts | 269° |
| 2026-05-07 17:36 | 51.77434 | -4.51939 | 37996 ft | 437 kts | 269° |
| 2026-05-07 17:36 | 51.77572 | -4.61768 | 37998 ft | 437 kts | 270° |
| 2026-05-07 17:37 | 51.77835 | -4.71515 | 38002 ft | 437 kts | 271° |
| 2026-05-07 17:37 | 51.78129 | -4.81333 | 38007 ft | 437 kts | 271° |
| 2026-05-07 17:38 | 51.78359 | -4.89492 | 38014 ft | 437 kts | 270° |
| 2026-05-07 17:38 | 51.78658 | -5.00921 | 38007 ft | 438 kts | 270° |
| 2026-05-07 17:39 | 51.78861 | -5.09101 | 38007 ft | 438 kts | 270° |
| 2026-05-07 17:39 | 51.79098 | -5.18949 | 37996 ft | 438 kts | 270° |
| 2026-05-07 17:40 | 51.79326 | -5.28745 | 37931 ft | 439 kts | 270° |
| 2026-05-07 17:40 | 51.79438 | -5.33720 | 37419 ft | 443 kts | 270° |
| 2026-05-07 17:40 | 51.79548 | -5.38677 | 36851 ft | 440 kts | 270° |
| 2026-05-07 17:41 | 51.79656 | -5.43626 | 36306 ft | 438 kts | 270° |
| 2026-05-07 17:41 | 51.79762 | -5.48549 | 35706 ft | 438 kts | 269° |
| 2026-05-07 17:41 | 51.79864 | -5.53423 | 35076 ft | 439 kts | 269° |
| 2026-05-07 17:41 | 51.79965 | -5.58340 | 34603 ft | 435 kts | 269° |
| 2026-05-07 17:42 | 51.80064 | -5.63219 | 34153 ft | 432 kts | 269° |
| 2026-05-07 17:42 | 51.80160 | -5.68060 | 33648 ft | 428 kts | 269° |
| 2026-05-07 17:42 | 51.80253 | -5.72860 | 33154 ft | 425 kts | 269° |
| 2026-05-07 17:42 | 51.80342 | -5.77554 | 32717 ft | 420 kts | 269° |
| 2026-05-07 17:43 | 51.80429 | -5.82261 | 32262 ft | 416 kts | 269° |
| 2026-05-07 17:43 | 51.80513 | -5.86905 | 31848 ft | 412 kts | 269° |
| 2026-05-07 17:43 | 51.80595 | -5.91524 | 31403 ft | 409 kts | 269° |
| 2026-05-07 17:43 | 51.80673 | -5.96050 | 30982 ft | 405 kts | 268° |
| 2026-05-07 17:44 | 51.80750 | -6.00584 | 30562 ft | 402 kts | 269° |
| 2026-05-07 17:44 | 51.80824 | -6.05080 | 30146 ft | 399 kts | 268° |
| 2026-05-07 17:44 | 51.80896 | -6.09558 | 29663 ft | 396 kts | 268° |
| 2026-05-07 17:44 | 51.80966 | -6.13997 | 29234 ft | 392 kts | 268° |
| 2026-05-07 17:45 | 51.81034 | -6.18383 | 28805 ft | 388 kts | 268° |
| 2026-05-07 17:45 | 51.81099 | -6.22721 | 28376 ft | 384 kts | 268° |
| 2026-05-07 17:45 | 51.81162 | -6.27022 | 27949 ft | 380 kts | 268° |
| 2026-05-07 17:45 | 51.81223 | -6.31284 | 27528 ft | 377 kts | 268° |
| 2026-05-07 17:46 | 51.81281 | -6.35442 | 27131 ft | 374 kts | 268° |
| 2026-05-07 17:46 | 51.81338 | -6.39632 | 26710 ft | 371 kts | 268° |
| 2026-05-07 17:46 | 51.81393 | -6.43799 | 26299 ft | 368 kts | 268° |
| 2026-05-07 17:46 | 51.81446 | -6.47920 | 25889 ft | 366 kts | 268° |
| 2026-05-07 17:47 | 51.81497 | -6.52030 | 25494 ft | 363 kts | 268° |
| 2026-05-07 17:47 | 51.81547 | -6.56102 | 25099 ft | 361 kts | 268° |
| 2026-05-07 17:47 | 51.81594 | -6.60089 | 24717 ft | 359 kts | 268° |
| 2026-05-07 17:47 | 51.81640 | -6.64109 | 24317 ft | 357 kts | 268° |
| 2026-05-07 17:48 | 51.81685 | -6.68109 | 23927 ft | 355 kts | 268° |
| 2026-05-07 17:48 | 51.81728 | -6.72095 | 23534 ft | 353 kts | 269° |
| 2026-05-07 17:48 | 51.81769 | -6.76070 | 23013 ft | 353 kts | 269° |
| 2026-05-07 17:48 | 51.81809 | -6.80036 | 22563 ft | 351 kts | 268° |
| 2026-05-07 17:49 | 51.81848 | -6.83970 | 22148 ft | 349 kts | 269° |
| 2026-05-07 17:49 | 51.81885 | -6.87886 | 21743 ft | 346 kts | 269° |
| 2026-05-07 17:49 | 51.81921 | -6.91717 | 21362 ft | 344 kts | 268° |
| 2026-05-07 17:49 | 51.81955 | -6.95579 | 20975 ft | 341 kts | 268° |
| 2026-05-07 17:50 | 51.81988 | -6.99413 | 20594 ft | 339 kts | 268° |
| 2026-05-07 17:50 | 51.82019 | -7.03215 | 20217 ft | 337 kts | 268° |
| 2026-05-07 17:50 | 51.82049 | -7.06992 | 19845 ft | 335 kts | 268° |
| 2026-05-07 17:50 | 51.82077 | -7.10755 | 19473 ft | 333 kts | 268° |
| 2026-05-07 17:51 | 51.82104 | -7.14494 | 19100 ft | 332 kts | 268° |
| 2026-05-07 17:51 | 51.82129 | -7.18214 | 18731 ft | 330 kts | 268° |
| 2026-05-07 17:51 | 51.82154 | -7.21887 | 18363 ft | 329 kts | 268° |
| 2026-05-07 17:51 | 51.82177 | -7.25587 | 17956 ft | 328 kts | 268° |
| 2026-05-07 17:52 | 51.82198 | -7.29265 | 17557 ft | 326 kts | 268° |
| 2026-05-07 17:52 | 51.82219 | -7.32920 | 17193 ft | 323 kts | 268° |
| 2026-05-07 17:52 | 51.82239 | -7.36544 | 16810 ft | 321 kts | 268° |
| 2026-05-07 17:52 | 51.82257 | -7.40143 | 16443 ft | 319 kts | 268° |
| 2026-05-07 17:53 | 51.82274 | -7.43717 | 16077 ft | 317 kts | 268° |
| 2026-05-07 17:53 | 51.82290 | -7.47224 | 15725 ft | 315 kts | 268° |
| 2026-05-07 17:53 | 51.82305 | -7.50756 | 15369 ft | 313 kts | 268° |
| 2026-05-07 17:53 | 51.82318 | -7.54272 | 15024 ft | 311 kts | 268° |
| 2026-05-07 17:54 | 51.82330 | -7.57760 | 14669 ft | 309 kts | 268° |
| 2026-05-07 17:54 | 51.82342 | -7.61199 | 14316 ft | 308 kts | 268° |
| 2026-05-07 17:54 | 51.82352 | -7.64658 | 13964 ft | 307 kts | 268° |
| 2026-05-07 17:54 | 51.82362 | -7.68103 | 13595 ft | 306 kts | 268° |
| 2026-05-07 17:55 | 51.82371 | -7.71530 | 13214 ft | 304 kts | 268° |
| 2026-05-07 17:55 | 51.82378 | -7.74944 | 12847 ft | 303 kts | 268° |
| 2026-05-07 17:55 | 51.82384 | -7.78342 | 12502 ft | 301 kts | 268° |
| 2026-05-07 17:55 | 51.82554 | -7.81660 | 12122 ft | 302 kts | 284° |
| 2026-05-07 17:56 | 51.83445 | -7.84738 | 11820 ft | 302 kts | 299° |
| 2026-05-07 17:56 | 51.84610 | -7.87580 | 11468 ft | 301 kts | 301° |
| 2026-05-07 17:56 | 51.85806 | -7.90364 | 11118 ft | 300 kts | 302° |
| 2026-05-07 17:56 | 51.86981 | -7.93090 | 10781 ft | 299 kts | 302° |
| 2026-05-07 17:57 | 51.88163 | -7.95850 | 10442 ft | 297 kts | 302° |
| 2026-05-07 17:57 | 51.88949 | -7.97697 | 10374 ft | 291 kts | 302° |
| 2026-05-07 17:57 | 51.90442 | -8.01228 | 10197 ft | 280 kts | 301° |
| 2026-05-07 17:57 | 51.91522 | -8.03796 | 10074 ft | 272 kts | 301° |
| 2026-05-07 17:58 | 51.92558 | -8.06268 | 9922 ft | 266 kts | 301° |
| 2026-05-07 17:58 | 51.93593 | -8.08747 | 9641 ft | 264 kts | 302° |
| 2026-05-07 17:58 | 51.94618 | -8.11207 | 9362 ft | 262 kts | 302° |
| 2026-05-07 17:58 | 51.95640 | -8.13654 | 9110 ft | 261 kts | 302° |
| 2026-05-07 17:59 | 51.96659 | -8.16108 | 8798 ft | 261 kts | 302° |
| 2026-05-07 17:59 | 51.97658 | -8.18516 | 8571 ft | 259 kts | 302° |
| 2026-05-07 17:59 | 51.98666 | -8.20941 | 8302 ft | 257 kts | 301° |
| 2026-05-07 17:59 | 51.99662 | -8.23348 | 8030 ft | 256 kts | 302° |
| 2026-05-07 18:00 | 52.00655 | -8.25743 | 7783 ft | 254 kts | 302° |
| 2026-05-07 18:00 | 52.01637 | -8.28118 | 7520 ft | 252 kts | 301° |
| 2026-05-07 18:00 | 52.02598 | -8.30452 | 7258 ft | 251 kts | 302° |
| 2026-05-07 18:00 | 52.03570 | -8.32802 | 7002 ft | 250 kts | 302° |
| 2026-05-07 18:01 | 52.04539 | -8.35144 | 6748 ft | 248 kts | 302° |
| 2026-05-07 18:01 | 52.05498 | -8.37476 | 6489 ft | 248 kts | 301° |
| 2026-05-07 18:01 | 52.06456 | -8.39804 | 6209 ft | 247 kts | 302° |
| 2026-05-07 18:01 | 52.07293 | -8.42213 | 6009 ft | 241 kts | 285° |
| 2026-05-07 18:02 | 52.06869 | -8.47432 | 5477 ft | 236 kts | 250° |
| 2026-05-07 18:02 | 52.06292 | -8.49892 | 5198 ft | 235 kts | 249° |
| 2026-05-07 18:02 | 52.05709 | -8.52377 | 4919 ft | 235 kts | 249° |
| 2026-05-07 18:03 | 52.05132 | -8.54871 | 4643 ft | 235 kts | 249° |
| 2026-05-07 18:03 | 52.04518 | -8.57340 | 4357 ft | 235 kts | 239° |
| 2026-05-07 18:03 | 52.03329 | -8.59021 | 4251 ft | 226 kts | 201° |
| 2026-05-07 18:03 | 52.01793 | -8.59115 | 4030 ft | 224 kts | 170° |
| 2026-05-07 18:04 | 52.00310 | -8.58517 | 3734 ft | 221 kts | 168° |
| 2026-05-07 18:04 | 51.98851 | -8.57807 | 3459 ft | 216 kts | 164° |
| 2026-05-07 18:04 | 51.97445 | -8.56993 | 3163 ft | 210 kts | 162° |
| 2026-05-07 18:04 | 51.96101 | -8.56192 | 2861 ft | 203 kts | 163° |
| 2026-05-07 18:05 | 51.94803 | -8.55421 | 2595 ft | 195 kts | 163° |
| 2026-05-07 18:05 | 51.93540 | -8.54676 | 2325 ft | 190 kts | 163° |
| 2026-05-07 18:05 | 51.92313 | -8.53951 | 2059 ft | 185 kts | 164° |
| 2026-05-07 18:05 | 51.91129 | -8.53250 | 1800 ft | 176 kts | 164° |
| 2026-05-07 18:06 | 51.90043 | -8.52606 | 1628 ft | 159 kts | 164° |
| 2026-05-07 18:06 | 51.89042 | -8.52015 | 1363 ft | 146 kts | 164° |
| 2026-05-07 18:06 | 51.88101 | -8.51460 | 1154 ft | 142 kts | 164° |
| 2026-05-07 18:06 | 51.87171 | -8.50893 | 947 ft | 142 kts | 163° |
| 2026-05-07 18:07 | 51.86253 | -8.50354 | 770 ft | 139 kts | 164° |
| 2026-05-07 18:07 | 51.85324 | -8.49807 | 593 ft | 143 kts | 162° |
| 2026-05-07 18:07 | 51.84407 | -8.49270 | 485 ft | 128 kts | 160° |
| 2026-05-07 18:07 | 51.83773 | -8.48899 | 467 ft | 66 kts | 160° |
| 2026-05-07 18:08 | 51.83439 | -8.48702 | 469 ft | 46 kts | 160° |
| 2026-05-07 18:08 | 51.83299 | -8.48582 | 470 ft | 12 kts | 128° |
| 2026-05-07 18:08 | 51.83279 | -8.48612 | 469 ft | 7 kts | 323° |
| 2026-05-07 18:08 | 51.83355 | -8.48654 | 469 ft | 18 kts | 341° |
| 2026-05-07 18:09 | 51.83506 | -8.48741 | 469 ft | 28 kts | 340° |
| 2026-05-07 18:09 | 51.83708 | -8.48859 | 464 ft | 32 kts | 340° |
| 2026-05-07 18:09 | 51.83910 | -8.48978 | 470 ft | 30 kts | 340° |
| 2026-05-07 18:09 | 51.84097 | -8.49089 | 476 ft | 28 kts | 340° |
| 2026-05-07 18:10 | 51.84252 | -8.49181 | 477 ft | 14 kts | 340° |
| 2026-05-07 18:10 | 51.84323 | -8.49102 | 484 ft | 13 kts | 63° |
| 2026-05-07 18:10 | 51.84374 | -8.48983 | 484 ft | 13 kts | 18° |
| 2026-05-07 18:10 | 51.84458 | -8.49021 | 486 ft | 13 kts | 340° |
| 2026-05-07 18:11 | 51.84561 | -8.49081 | 496 ft | 18 kts | 340° |
| 2026-05-07 18:11 | 51.84637 | -8.49126 | 499 ft | 17 kts | 340° |
| 2026-05-07 18:11 | 51.84783 | -8.49204 | 502 ft | 12 kts | 347° |
| 2026-05-07 18:11 | 51.84856 | -8.49218 | 502 ft | 10 kts | 27° |
| 2026-05-07 18:12 | 51.84884 | -8.49120 | 502 ft | 10 kts | 70° |
| 2026-05-07 18:12 | 51.84890 | -8.49096 | 502 ft | 1 kts | 70° |
| 2026-05-07 18:12 | 51.84892 | -8.49086 | 502 ft | 0 kts | 70° |